Time;durP1;ratioP1;P1;durP2;ratioP2;P2;SDS_P1;SDS_P2;PMS_P1;PMS_P2;Temp;Humidity;BMP_temperature;BMP_pressure;BME280_temperature;BME280_humidity;BME280_pressure;Samples;Min_cycle;Max_cycle;Signal;HPM_P1;HPM_P2
2022/11/03 00:02:21;;;;;;;2.20;2.00;;;;;;;;;;5008469;28;20428;-69
2022/11/03 00:04:47;;;;;;;2.30;2.10;;;;;;;;;;5003478;28;20432;-69
2022/11/03 00:07:19;;;;;;;3.03;1.70;;;;;;;;;;5007409;28;20479;-68
2022/11/03 00:09:45;;;;;;;3.97;2.60;;;;;;;;;;5011100;28;20516;-68
2022/11/03 00:12:10;;;;;;;3.80;3.40;;;;;;;;;;5008768;28;20451;-68
2022/11/03 00:14:36;;;;;;;3.43;2.90;;;;;;;;;;5010566;28;20435;-68
2022/11/03 00:17:02;;;;;;;2.50;2.40;;;;;;;;;;5009771;28;20445;-69
2022/11/03 00:19:28;;;;;;;3.57;2.70;;;;;;;;;;5010087;28;20522;-69
2022/11/03 00:21:57;;;;;;;3.20;2.87;;;;;;;;;;5007510;28;20523;-68
2022/11/03 00:24:23;;;;;;;5.43;2.73;;;;;;;;;;5009595;28;20501;-69
2022/11/03 00:26:49;;;;;;;5.63;2.83;;;;;;;;;;5010743;28;20519;-68
2022/11/03 00:29:15;;;;;;;3.07;1.93;;;;;;;;;;5010550;28;20486;-70
2022/11/03 00:31:42;;;;;;;2.17;2.07;;;;;;;;;;5008442;28;20495;-69
2022/11/03 00:34:08;;;;;;;6.10;2.77;;;;;;;;;;5006791;28;20928;-68
2022/11/03 00:36:36;;;;;;;2.93;2.73;;;;;;;;;;5009968;28;20459;-69
2022/11/03 00:39:02;;;;;;;7.63;2.00;;;;;;;;;;5008394;28;20917;-69
2022/11/03 00:41:28;;;;;;;2.30;2.13;;;;;;;;;;5009606;28;20430;-69
2022/11/03 00:43:54;;;;;;;3.70;2.33;;;;;;;;;;5007225;28;20921;-68
2022/11/03 00:46:21;;;;;;;1.83;1.80;;;;;;;;;;5008562;28;20428;-68
2022/11/03 00:48:47;;;;;;;3.80;2.27;;;;;;;;;;5010486;28;20427;-70
2022/11/03 00:51:33;;;;;;;2.33;2.10;;;;;;;;;;5007970;28;20487;-69
2022/11/03 00:54:00;;;;;;;3.90;1.60;;;;;;;;;;5010483;28;20416;-69
2022/11/03 00:56:27;;;;;;;4.10;1.90;;;;;;;;;;5004518;28;20460;-70
2022/11/03 00:58:53;;;;;;;2.20;1.80;;;;;;;;;;5007911;28;20460;-68
2022/11/03 01:01:19;;;;;;;2.80;1.80;;;;;;;;;;5006927;28;20440;-68
2022/11/03 01:06:51;;;;;;;4.87;2.10;;;;;;;;;;5009741;28;20860;-69
2022/11/03 01:09:17;;;;;;;4.37;1.30;;;;;;;;;;5010238;28;20442;-70
2022/11/03 01:11:49;;;;;;;2.63;1.67;;;;;;;;;;5007089;28;20926;-69
2022/11/03 01:14:15;;;;;;;1.50;1.40;;;;;;;;;;5009964;28;20478;-68
2022/11/03 01:16:42;;;;;;;1.60;1.50;;;;;;;;;;5010284;28;21144;-69
2022/11/03 01:19:08;;;;;;;2.37;1.87;;;;;;;;;;5010211;28;20797;-69
2022/11/03 01:21:34;;;;;;;3.47;2.00;;;;;;;;;;5006763;28;20944;-69
2022/11/03 01:24:01;;;;;;;5.40;1.23;;;;;;;;;;5009531;28;20411;-69
2022/11/03 01:26:27;;;;;;;3.23;2.03;;;;;;;;;;5008219;28;20434;-68
2022/11/03 01:28:53;;;;;;;2.20;1.80;;;;;;;;;;4995046;28;20443;-69
2022/11/03 01:31:20;;;;;;;11.77;1.90;;;;;;;;;;5008704;28;20575;-69
2022/11/03 01:33:46;;;;;;;1.13;1.13;;;;;;;;;;5009317;28;20486;-69
2022/11/03 01:36:13;;;;;;;2.90;2.10;;;;;;;;;;5008101;28;20436;-68
2022/11/03 01:38:39;;;;;;;1.50;1.40;;;;;;;;;;5007013;28;20471;-69
2022/11/03 01:41:06;;;;;;;1.80;1.70;;;;;;;;;;5008499;28;20439;-69
2022/11/03 01:43:33;;;;;;;1.83;1.43;;;;;;;;;;5009633;28;21563;-69
2022/11/03 01:46:11;;;;;;;1.87;1.80;;;;;;;;;;5009388;28;20416;-69
2022/11/03 01:48:39;;;;;;;3.17;2.10;;;;;;;;;;5006932;28;20988;-69
2022/11/03 01:51:06;;;;;;;3.67;1.60;;;;;;;;;;5006593;28;20578;-69
2022/11/03 01:53:33;;;;;;;2.77;1.43;;;;;;;;;;5007058;28;20574;-68
2022/11/03 01:55:59;;;;;;;3.77;1.83;;;;;;;;;;5008087;28;20439;-68
2022/11/03 01:58:27;;;;;;;2.27;2.07;;;;;;;;;;5008753;28;20523;-69
2022/11/03 02:00:55;;;;;;;1.83;1.70;;;;;;;;;;5007635;28;20444;-69
2022/11/03 02:03:22;;;;;;;4.53;1.53;;;;;;;;;;5006762;28;20428;-68
2022/11/03 02:05:49;;;;;;;1.57;1.57;;;;;;;;;;5009497;28;20936;-69
2022/11/03 02:08:15;;;;;;;1.50;1.50;;;;;;;;;;5008996;28;20515;-69
2022/11/03 02:10:41;;;;;;;2.07;1.97;;;;;;;;;;5009151;28;20623;-69
2022/11/03 02:13:12;;;;;;;2.97;1.60;;;;;;;;;;5005507;28;20975;-70
2022/11/03 02:15:39;;;;;;;4.03;1.77;;;;;;;;;;5008067;28;20796;-69
2022/11/03 02:18:05;;;;;;;3.33;2.30;;;;;;;;;;5005333;28;20444;-68
2022/11/03 02:20:32;;;;;;;1.90;1.77;;;;;;;;;;5009030;28;20431;-69
2022/11/03 02:23:17;;;;;;;2.03;1.90;;;;;;;;;;5007454;28;20424;-69
2022/11/03 02:25:47;;;;;;;2.10;1.90;;;;;;;;;;5009655;28;20412;-69
2022/11/03 02:28:15;;;;;;;4.53;1.80;;;;;;;;;;5007582;28;20797;-69
2022/11/03 02:30:49;;;;;;;1.20;1.20;;;;;;;;;;5008034;28;20523;-68
2022/11/03 02:33:15;;;;;;;3.13;1.40;;;;;;;;;;5003192;28;20436;-68
2022/11/03 02:35:59;;;;;;;1.00;1.00;;;;;;;;;;5010464;28;20768;-69
2022/11/03 02:38:28;;;;;;;2.20;2.00;;;;;;;;;;5012784;28;20463;-69
2022/11/03 02:40:55;;;;;;;2.47;1.73;;;;;;;;;;5012443;28;20473;-69
2022/11/03 02:43:22;;;;;;;1.23;1.23;;;;;;;;;;5010086;28;20436;-69
2022/11/03 02:45:49;;;;;;;1.77;1.67;;;;;;;;;;5011865;28;20923;-69
2022/11/03 02:48:17;;;;;;;1.87;1.87;;;;;;;;;;5012648;28;20419;-68
2022/11/03 02:50:43;;;;;;;1.43;1.43;;;;;;;;;;5011120;28;21141;-69
2022/11/03 02:53:11;;;;;;;1.93;1.70;;;;;;;;;;5009861;28;20443;-69
2022/11/03 02:55:39;;;;;;;4.97;1.90;;;;;;;;;;5009466;28;20440;-68
2022/11/03 02:58:23;;;;;;;4.83;2.10;;;;;;;;;;5009769;28;20440;-69
2022/11/03 03:01:01;;;;;;;9.50;2.33;;;;;;;;;;5011458;28;20412;-69
2022/11/03 03:03:30;;;;;;;3.57;1.80;;;;;;;;;;5011760;28;20470;-69
2022/11/03 03:05:59;;;;;;;2.20;2.00;;;;;;;;;;5010672;28;20498;-69
2022/11/03 03:08:26;;;;;;;2.57;2.17;;;;;;;;;;5007839;28;20451;-69
2022/11/03 03:10:53;;;;;;;4.10;2.90;;;;;;;;;;5010730;28;20567;-69
2022/11/03 03:13:20;;;;;;;2.23;1.80;;;;;;;;;;5009894;28;20431;-69
2022/11/03 03:16:07;;;;;;;2.60;2.40;;;;;;;;;;5011787;28;20417;-68
2022/11/03 03:18:33;;;;;;;2.70;2.47;;;;;;;;;;5010931;28;20428;-68
2022/11/03 03:21:02;;;;;;;1.80;1.77;;;;;;;;;;5009768;28;20780;-69
2022/11/03 03:23:31;;;;;;;1.87;1.60;;;;;;;;;;5008197;28;20440;-68
2022/11/03 03:26:20;;;;;;;5.23;2.47;;;;;;;;;;5009933;28;20432;-68
2022/11/03 03:29:06;;;;;;;12.90;3.30;;;;;;;;;;5008918;28;20428;-69
2022/11/03 03:31:35;;;;;;;6.33;2.37;;;;;;;;;;5005138;28;20491;-69
2022/11/03 03:34:01;;;;;;;4.23;2.20;;;;;;;;;;5009980;28;20935;-68
2022/11/03 03:36:28;;;;;;;4.17;2.40;;;;;;;;;;5006683;28;20436;-68
2022/11/03 03:39:00;;;;;;;1.70;1.70;;;;;;;;;;5009754;28;20435;-68
2022/11/03 03:41:28;;;;;;;2.03;1.93;;;;;;;;;;5009046;28;20798;-68
2022/11/03 03:43:55;;;;;;;1.73;1.63;;;;;;;;;;5007123;28;20443;-68
2022/11/03 03:46:22;;;;;;;2.37;2.27;;;;;;;;;;5008711;28;20443;-69
2022/11/03 03:48:48;;;;;;;2.90;2.70;;;;;;;;;;5008980;28;20440;-68
2022/11/03 03:51:16;;;;;;;3.23;2.50;;;;;;;;;;5010786;28;20574;-69
2022/11/03 03:53:42;;;;;;;3.20;1.70;;;;;;;;;;5008794;28;20436;-69
2022/11/03 03:56:08;;;;;;;5.93;4.07;;;;;;;;;;5007983;28;20955;-69
2022/11/03 03:58:33;;;;;;;3.00;2.90;;;;;;;;;;5010152;28;20435;-68
2022/11/03 04:00:59;;;;;;;3.90;2.70;;;;;;;;;;5009777;28;20448;-68
2022/11/03 04:03:26;;;;;;;1.53;1.53;;;;;;;;;;5009088;28;20444;-69
2022/11/03 04:05:55;;;;;;;1.87;1.77;;;;;;;;;;5008995;28;20500;-68
2022/11/03 04:08:21;;;;;;;2.23;2.13;;;;;;;;;;5009541;28;20507;-68
2022/11/03 04:24:31;;;;;;;3.60;1.40;;;;;;;;;;5008237;28;20467;-68
2022/11/03 04:27:00;;;;;;;2.00;1.90;;;;;;;;;;5007934;28;20483;-69
2022/11/03 04:29:26;;;;;;;2.10;1.90;;;;;;;;;;5006714;28;20433;-69
2022/11/03 04:31:52;;;;;;;1.43;1.37;;;;;;;;;;5007937;28;21107;-69
2022/11/03 04:34:18;;;;;;;1.57;1.57;;;;;;;;;;5009680;28;20455;-69
2022/11/03 04:36:44;;;;;;;2.00;1.90;;;;;;;;;;5007102;28;20433;-69
2022/11/03 04:39:16;;;;;;;1.90;1.80;;;;;;;;;;5007989;28;20835;-69
2022/11/03 04:41:42;;;;;;;2.00;1.70;;;;;;;;;;5008375;28;20432;-69
2022/11/03 04:44:12;;;;;;;2.00;1.90;;;;;;;;;;5007862;28;20439;-68
2022/11/03 04:46:38;;;;;;;2.73;2.60;;;;;;;;;;5006159;28;20451;-69
2022/11/03 04:49:05;;;;;;;7.70;3.20;;;;;;;;;;5006225;28;20940;-69
2022/11/03 04:51:33;;;;;;;5.43;3.40;;;;;;;;;;5009134;28;20476;-69
2022/11/03 04:54:01;;;;;;;3.70;3.13;;;;;;;;;;5009788;28;20423;-69
2022/11/03 04:56:27;;;;;;;4.23;2.93;;;;;;;;;;5009661;28;20420;-69
2022/11/03 04:58:53;;;;;;;4.40;3.87;;;;;;;;;;5006266;28;20519;-69
2022/11/03 05:01:20;;;;;;;6.63;3.20;;;;;;;;;;5005695;28;20435;-69
2022/11/03 05:03:48;;;;;;;3.07;2.83;;;;;;;;;;5006711;28;20904;-69
2022/11/03 05:06:15;;;;;;;5.50;3.97;;;;;;;;;;5009944;28;20467;-69
2022/11/03 05:08:42;;;;;;;7.87;3.43;;;;;;;;;;5007396;28;20566;-69
2022/11/03 05:11:40;;;;;;;3.87;3.60;;;;;;;;;;5008335;28;20542;-69
2022/11/03 05:14:18;;;;;;;7.03;3.33;;;;;;;;;;4982131;28;20448;-69
2022/11/03 05:16:44;;;;;;;4.20;2.70;;;;;;;;;;5007467;28;20436;-69
2022/11/03 05:19:15;;;;;;;2.90;2.73;;;;;;;;;;5009016;28;20656;-68
2022/11/03 05:21:41;;;;;;;4.83;3.30;;;;;;;;;;5006181;28;20799;-69
2022/11/03 05:24:11;;;;;;;2.70;2.60;;;;;;;;;;5007961;28;20483;-69
2022/11/03 05:26:37;;;;;;;11.93;3.50;;;;;;;;;;5005934;28;20451;-69
2022/11/03 05:29:08;;;;;;;2.97;2.87;;;;;;;;;;5007553;28;20444;-68
2022/11/03 05:31:36;;;;;;;4.00;3.30;;;;;;;;;;5009002;28;20490;-69
2022/11/03 05:34:06;;;;;;;6.10;3.90;;;;;;;;;;5008571;28;20447;-68
2022/11/03 05:36:33;;;;;;;3.17;2.80;;;;;;;;;;5007404;28;20433;-68
2022/11/03 05:39:01;;;;;;;3.27;3.17;;;;;;;;;;5007445;28;20440;-70
2022/11/03 05:41:28;;;;;;;4.50;3.77;;;;;;;;;;5007098;28;20499;-69
2022/11/03 05:43:56;;;;;;;4.30;3.77;;;;;;;;;;5009047;28;20481;-69
2022/11/03 05:46:23;;;;;;;4.10;3.90;;;;;;;;;;4994970;28;20441;-69
2022/11/03 05:48:49;;;;;;;2.53;1.83;;;;;;;;;;4996598;28;20444;-69
2022/11/03 05:51:18;;;;;;;2.70;2.50;;;;;;;;;;4998847;28;20496;-69
2022/11/03 05:53:45;;;;;;;3.07;2.87;;;;;;;;;;5003724;28;20432;-69
2022/11/03 05:56:16;;;;;;;2.60;2.40;;;;;;;;;;5004283;28;20844;-68
2022/11/03 05:58:43;;;;;;;3.23;3.13;;;;;;;;;;5007360;28;20473;-68
2022/11/03 06:01:20;;;;;;;3.80;3.60;;;;;;;;;;5006159;28;20439;-67
2022/11/03 06:03:46;;;;;;;2.70;2.50;;;;;;;;;;5003674;28;20522;-67
2022/11/03 06:06:33;;;;;;;6.37;4.13;;;;;;;;;;5003667;28;20478;-69
2022/11/03 06:09:01;;;;;;;2.97;2.77;;;;;;;;;;5007336;28;20708;-68
2022/11/03 06:11:31;;;;;;;2.70;2.60;;;;;;;;;;5005839;28;20487;-69
2022/11/03 06:13:57;;;;;;;2.73;2.53;;;;;;;;;;5008396;28;20440;-69
2022/11/03 06:16:34;;;;;;;2.83;2.73;;;;;;;;;;5009716;28;21092;-68
2022/11/03 06:19:01;;;;;;;2.90;2.80;;;;;;;;;;5009583;28;20448;-68
2022/11/03 06:21:27;;;;;;;3.23;3.03;;;;;;;;;;5011776;28;20443;-68
2022/11/03 06:23:53;;;;;;;2.10;2.00;;;;;;;;;;5006169;28;20441;-68
2022/11/03 06:26:24;;;;;;;1.80;1.80;;;;;;;;;;5012585;28;21102;-69
2022/11/03 06:28:50;;;;;;;2.17;2.00;;;;;;;;;;5010002;28;20448;-68
2022/11/03 06:31:16;;;;;;;5.13;2.50;;;;;;;;;;5009763;28;20502;-69
2022/11/03 06:33:42;;;;;;;2.80;2.60;;;;;;;;;;5004140;28;20436;-68
2022/11/03 06:36:12;;;;;;;2.47;2.30;;;;;;;;;;5010322;28;20444;-68
2022/11/03 06:38:39;;;;;;;4.67;3.30;;;;;;;;;;5010852;28;20541;-68
2022/11/03 06:41:04;;;;;;;2.70;2.50;;;;;;;;;;5009048;28;20519;-69
2022/11/03 06:43:33;;;;;;;2.30;2.20;;;;;;;;;;5006686;28;20523;-69
2022/11/03 06:46:01;;;;;;;2.50;2.40;;;;;;;;;;5010071;28;20447;-70
2022/11/03 06:48:28;;;;;;;5.63;2.63;;;;;;;;;;5009924;28;20486;-69
2022/11/03 06:50:55;;;;;;;5.47;4.60;;;;;;;;;;5005971;28;20560;-68
2022/11/03 06:53:23;;;;;;;4.70;4.30;;;;;;;;;;4989705;28;20531;-67
2022/11/03 06:55:49;;;;;;;8.13;6.40;;;;;;;;;;4989345;28;20436;-69
2022/11/03 06:58:32;;;;;;;5.60;5.10;;;;;;;;;;5000415;28;20443;-69
2022/11/03 07:01:00;;;;;;;4.93;4.50;;;;;;;;;;5004884;28;20442;-69
2022/11/03 07:03:29;;;;;;;3.90;3.60;;;;;;;;;;5006749;28;20432;-69
2022/11/03 07:06:15;;;;;;;8.73;4.93;;;;;;;;;;5004550;28;20441;-68
2022/11/03 07:08:44;;;;;;;4.23;3.93;;;;;;;;;;5002557;28;21023;-69
2022/11/03 07:11:20;;;;;;;6.93;3.90;;;;;;;;;;5005765;28;20476;-69
2022/11/03 07:13:47;;;;;;;12.40;3.60;;;;;;;;;;5011066;28;20514;-69
2022/11/03 07:16:26;;;;;;;10.00;4.37;;;;;;;;;;5008332;28;20476;-69
2022/11/03 07:18:52;;;;;;;5.73;3.50;;;;;;;;;;5009184;28;20443;-69
2022/11/03 07:21:21;;;;;;;4.00;3.80;;;;;;;;;;5011002;28;20442;-69
2022/11/03 07:23:47;;;;;;;4.23;3.40;;;;;;;;;;5011795;28;20423;-69
2022/11/03 07:26:13;;;;;;;5.20;3.60;;;;;;;;;;5009410;28;20441;-69
2022/11/03 07:28:39;;;;;;;3.93;3.40;;;;;;;;;;5009442;28;20980;-69
2022/11/03 07:31:14;;;;;;;3.27;2.80;;;;;;;;;;5005553;28;20615;-69
2022/11/03 07:33:40;;;;;;;4.43;3.40;;;;;;;;;;5006169;28;20438;-69
2022/11/03 07:36:07;;;;;;;2.90;2.70;;;;;;;;;;5008198;28;20420;-70
2022/11/03 07:38:33;;;;;;;2.90;2.60;;;;;;;;;;5003199;28;20428;-70
2022/11/03 07:40:59;;;;;;;3.10;2.50;;;;;;;;;;5008338;28;20435;-70
2022/11/03 07:43:31;;;;;;;4.53;4.13;;;;;;;;;;5011205;28;20425;-69
2022/11/03 07:45:58;;;;;;;2.43;2.20;;;;;;;;;;5008499;28;20786;-69
2022/11/03 07:48:43;;;;;;;6.40;3.53;;;;;;;;;;5006112;28;20503;-69
2022/11/03 07:51:12;;;;;;;5.07;4.77;;;;;;;;;;5005319;28;20563;-69
2022/11/03 07:53:45;;;;;;;16.30;9.67;;;;;;;;;;5007849;28;22062;-70
2022/11/03 07:56:17;;;;;;;14.70;9.20;;;;;;;;;;5010048;28;20440;-69
2022/11/03 07:58:43;;;;;;;6.77;5.97;;;;;;;;;;5007549;28;20432;-69
2022/11/03 08:01:29;;;;;;;5.27;4.67;;;;;;;;;;5008208;28;20969;-70
2022/11/03 08:03:56;;;;;;;9.13;5.60;;;;;;;;;;5007331;28;20438;-69
2022/11/03 08:06:22;;;;;;;7.23;6.33;;;;;;;;;;5009753;28;21203;-69
2022/11/03 08:08:48;;;;;;;7.03;6.17;;;;;;;;;;5007386;28;20437;-69
2022/11/03 08:11:14;;;;;;;9.27;7.53;;;;;;;;;;5009944;28;20480;-69
2022/11/03 08:13:40;;;;;;;13.33;6.73;;;;;;;;;;5010679;28;21072;-69
2022/11/03 08:16:06;;;;;;;6.33;5.60;;;;;;;;;;5005916;28;20486;-69
2022/11/03 08:18:32;;;;;;;6.60;5.20;;;;;;;;;;5006514;28;20443;-69
2022/11/03 08:20:58;;;;;;;4.97;4.00;;;;;;;;;;5009340;28;20439;-69
2022/11/03 08:23:24;;;;;;;5.83;3.20;;;;;;;;;;5008515;28;20482;-70
2022/11/03 08:25:50;;;;;;;3.37;3.27;;;;;;;;;;5008367;28;20646;-69
2022/11/03 08:28:16;;;;;;;3.83;3.37;;;;;;;;;;5010326;28;20466;-70
2022/11/03 08:30:42;;;;;;;4.73;4.43;;;;;;;;;;5009375;28;20914;-69
2022/11/03 08:33:08;;;;;;;6.30;4.30;;;;;;;;;;5006769;28;21005;-70
2022/11/03 08:35:34;;;;;;;5.23;4.60;;;;;;;;;;5008614;28;20795;-69
2022/11/03 08:38:00;;;;;;;4.50;4.10;;;;;;;;;;5010342;28;20472;-70
2022/11/03 08:40:26;;;;;;;9.80;4.90;;;;;;;;;;5006981;28;20443;-70
2022/11/03 08:42:52;;;;;;;4.90;3.57;;;;;;;;;;5007881;28;20960;-68
2022/11/03 08:45:18;;;;;;;3.70;3.40;;;;;;;;;;5006104;28;20432;-70
2022/11/03 08:47:44;;;;;;;6.30;3.13;;;;;;;;;;5008892;28;20448;-69
2022/11/03 08:50:10;;;;;;;3.40;3.10;;;;;;;;;;5008131;28;20880;-70
2022/11/03 08:52:36;;;;;;;4.70;3.20;;;;;;;;;;5006867;28;20954;-70
2022/11/03 08:55:02;;;;;;;5.67;3.30;;;;;;;;;;5009606;28;20481;-69
2022/11/03 08:57:28;;;;;;;5.20;4.73;;;;;;;;;;5010419;28;20518;-70
2022/11/03 08:59:55;;;;;;;4.90;3.70;;;;;;;;;;5006377;28;20428;-71
2022/11/03 09:02:21;;;;;;;5.63;3.57;;;;;;;;;;5006805;28;20474;-69
2022/11/03 09:04:47;;;;;;;8.10;3.00;;;;;;;;;;5010217;28;20408;-68
2022/11/03 09:07:13;;;;;;;4.00;2.80;;;;;;;;;;5010029;28;20563;-69
2022/11/03 09:09:39;;;;;;;8.60;2.80;;;;;;;;;;5007119;28;20431;-69
2022/11/03 09:12:05;;;;;;;4.17;3.17;;;;;;;;;;5005701;28;20530;-70
2022/11/03 09:14:31;;;;;;;4.80;2.90;;;;;;;;;;5007750;28;20442;-69
2022/11/03 09:16:57;;;;;;;6.30;3.87;;;;;;;;;;5008652;28;20490;-70
2022/11/03 09:19:23;;;;;;;5.57;3.20;;;;;;;;;;5008111;28;20451;-70
2022/11/03 09:21:51;;;;;;;3.37;3.17;;;;;;;;;;5007784;28;20502;-69
2022/11/03 09:24:17;;;;;;;9.67;3.33;;;;;;;;;;5008120;28;20428;-69
2022/11/03 09:26:43;;;;;;;2.70;2.50;;;;;;;;;;5008849;28;20439;-68
2022/11/03 09:29:09;;;;;;;5.27;3.60;;;;;;;;;;5009048;28;20427;-70
2022/11/03 09:31:35;;;;;;;11.63;3.97;;;;;;;;;;5007627;28;20518;-70
2022/11/03 09:34:01;;;;;;;5.10;4.17;;;;;;;;;;5008906;28;20430;-70
2022/11/03 09:36:28;;;;;;;5.07;4.77;;;;;;;;;;5007451;28;20804;-69
2022/11/03 09:38:54;;;;;;;4.67;3.90;;;;;;;;;;5005406;28;20440;-70
2022/11/03 09:41:20;;;;;;;6.47;3.43;;;;;;;;;;5008443;28;20523;-71
2022/11/03 09:43:46;;;;;;;3.57;3.27;;;;;;;;;;5004808;28;20519;-69
2022/11/03 09:46:14;;;;;;;7.43;3.30;;;;;;;;;;5013135;28;20909;-69
2022/11/03 09:48:40;;;;;;;4.10;3.70;;;;;;;;;;5011861;28;20442;-70
2022/11/03 09:51:09;;;;;;;6.30;4.10;;;;;;;;;;5011957;28;20570;-69
2022/11/03 09:53:35;;;;;;;5.30;4.77;;;;;;;;;;5011616;28;20563;-69
2022/11/03 09:56:01;;;;;;;9.67;3.60;;;;;;;;;;5012071;28;20435;-69
2022/11/03 09:58:27;;;;;;;5.67;3.47;;;;;;;;;;5008448;28;20440;-69
2022/11/03 10:00:53;;;;;;;4.80;3.47;;;;;;;;;;5011513;28;20454;-69
2022/11/03 10:03:19;;;;;;;8.37;3.30;;;;;;;;;;5010020;28;20433;-69
2022/11/03 10:05:45;;;;;;;5.20;3.73;;;;;;;;;;5013462;28;20797;-70
2022/11/03 10:08:18;;;;;;;4.63;4.23;;;;;;;;;;5011578;28;20497;-70
2022/11/03 10:10:44;;;;;;;12.80;4.07;;;;;;;;;;5011557;28;20553;-70
2022/11/03 10:13:17;;;;;;;7.20;4.30;;;;;;;;;;5007667;28;20424;-69
2022/11/03 10:15:43;;;;;;;14.57;3.77;;;;;;;;;;5009366;28;20812;-69
2022/11/03 10:18:09;;;;;;;7.20;4.60;;;;;;;;;;5010709;28;20519;-69
2022/11/03 10:20:35;;;;;;;11.80;4.43;;;;;;;;;;5012669;28;20478;-69
2022/11/03 10:23:01;;;;;;;6.50;4.53;;;;;;;;;;5011729;28;20455;-69
2022/11/03 10:25:34;;;;;;;5.73;4.73;;;;;;;;;;5012980;28;20459;-70
2022/11/03 10:28:18;;;;;;;6.10;4.50;;;;;;;;;;5012911;28;20827;-69
2022/11/03 10:30:52;;;;;;;8.03;5.40;;;;;;;;;;5010250;28;20478;-70
2022/11/03 10:33:32;;;;;;;7.57;4.53;;;;;;;;;;5012002;28;20478;-69
2022/11/03 10:35:59;;;;;;;12.17;5.80;;;;;;;;;;5010766;28;20448;-69
2022/11/03 10:38:35;;;;;;;10.93;7.40;;;;;;;;;;5012431;28;20435;-69
2022/11/03 10:41:20;;;;;;;5.13;4.67;;;;;;;;;;5009049;28;20420;-69
2022/11/03 10:44:01;;;;;;;6.70;4.77;;;;;;;;;;5009417;28;20445;-69
2022/11/03 10:46:28;;;;;;;6.07;4.13;;;;;;;;;;5012049;28;20436;-69
2022/11/03 10:49:01;;;;;;;3.53;3.33;;;;;;;;;;5009061;28;20428;-69
2022/11/03 10:51:30;;;;;;;8.40;4.13;;;;;;;;;;5011827;28;20538;-69
2022/11/03 10:53:57;;;;;;;3.97;3.77;;;;;;;;;;5011495;28;20782;-69
2022/11/03 10:56:22;;;;;;;7.40;4.43;;;;;;;;;;5009596;28;20447;-69
2022/11/03 10:58:49;;;;;;;7.80;4.50;;;;;;;;;;5010849;28;20428;-68
2022/11/03 11:01:15;;;;;;;10.20;4.53;;;;;;;;;;5012023;28;20832;-69
2022/11/03 11:03:42;;;;;;;6.03;4.40;;;;;;;;;;5010870;28;20447;-69
2022/11/03 11:06:22;;;;;;;8.67;5.03;;;;;;;;;;5009309;28;20475;-69
2022/11/03 11:08:49;;;;;;;8.00;4.50;;;;;;;;;;5012406;28;20436;-69
2022/11/03 11:11:16;;;;;;;4.83;4.17;;;;;;;;;;5011853;28;20587;-69
2022/11/03 11:13:42;;;;;;;5.40;4.57;;;;;;;;;;5011695;28;20427;-70
2022/11/03 11:16:28;;;;;;;6.10;3.60;;;;;;;;;;5009518;28;20443;-69
2022/11/03 11:18:54;;;;;;;3.60;3.47;;;;;;;;;;5010070;28;20478;-70
2022/11/03 11:21:20;;;;;;;5.60;5.10;;;;;;;;;;5011872;28;20428;-70
2022/11/03 11:23:47;;;;;;;4.40;4.20;;;;;;;;;;5012239;28;20416;-70
2022/11/03 11:26:29;;;;;;;9.83;4.47;;;;;;;;;;5011928;28;20424;-69
2022/11/03 11:29:07;;;;;;;11.63;6.00;;;;;;;;;;5010025;28;20428;-70
2022/11/03 11:31:34;;;;;;;6.93;4.63;;;;;;;;;;5010016;28;20484;-70
2022/11/03 11:34:09;;;;;;;16.77;5.50;;;;;;;;;;5011990;28;20424;-69
2022/11/03 11:36:39;;;;;;;8.13;5.40;;;;;;;;;;5011748;28;20439;-69
2022/11/03 11:39:14;;;;;;;11.00;5.97;;;;;;;;;;5008108;28;20426;-69
2022/11/03 11:41:59;;;;;;;11.77;5.97;;;;;;;;;;5010251;28;20435;-69
2022/11/03 11:44:48;;;;;;;6.60;4.57;;;;;;;;;;5010644;28;20428;-69
2022/11/03 11:47:33;;;;;;;9.17;4.00;;;;;;;;;;5011677;28;20920;-69
2022/11/03 11:50:02;;;;;;;7.50;4.20;;;;;;;;;;5008976;28;20447;-69
2022/11/03 11:52:29;;;;;;;3.60;3.37;;;;;;;;;;5005996;28;20436;-70
2022/11/03 11:54:55;;;;;;;7.47;3.57;;;;;;;;;;5010581;28;20482;-69
2022/11/03 11:57:21;;;;;;;3.00;2.90;;;;;;;;;;5010964;28;20468;-69
2022/11/03 11:59:49;;;;;;;2.63;2.53;;;;;;;;;;5011431;28;20428;-70
2022/11/03 12:02:19;;;;;;;9.37;7.60;;;;;;;;;;5010560;28;20420;-69
2022/11/03 12:04:46;;;;;;;3.20;3.00;;;;;;;;;;5009829;28;20437;-69
2022/11/03 12:07:12;;;;;;;7.80;3.60;;;;;;;;;;5009070;28;21020;-69
2022/11/03 12:09:42;;;;;;;3.90;3.33;;;;;;;;;;5005966;28;20918;-70
2022/11/03 12:12:09;;;;;;;7.10;3.60;;;;;;;;;;5010569;28;20525;-70
2022/11/03 12:14:36;;;;;;;4.17;3.80;;;;;;;;;;5005901;28;20526;-68
2022/11/03 12:17:16;;;;;;;7.77;4.20;;;;;;;;;;5009814;28;20460;-69
2022/11/03 12:19:46;;;;;;;10.67;5.30;;;;;;;;;;5008438;28;20432;-69
2022/11/03 12:22:28;;;;;;;5.37;3.50;;;;;;;;;;5010217;28;20825;-68
2022/11/03 12:24:55;;;;;;;4.73;4.40;;;;;;;;;;5010075;28;20774;-70
2022/11/03 12:27:24;;;;;;;3.93;3.60;;;;;;;;;;5009260;28;20497;-69
2022/11/03 12:29:50;;;;;;;6.97;5.80;;;;;;;;;;5005112;28;20442;-69
2022/11/03 12:32:16;;;;;;;13.07;5.43;;;;;;;;;;5008268;28;20440;-69
2022/11/03 12:34:42;;;;;;;8.10;5.67;;;;;;;;;;5009362;28;20444;-70
2022/11/03 12:37:08;;;;;;;15.40;5.23;;;;;;;;;;5007933;28;20426;-69
2022/11/03 12:39:34;;;;;;;7.30;6.20;;;;;;;;;;5007908;28;20523;-71
2022/11/03 12:42:00;;;;;;;7.00;4.67;;;;;;;;;;5007970;28;20424;-69
2022/11/03 12:44:26;;;;;;;5.80;5.00;;;;;;;;;;5009940;28;21526;-70
2022/11/03 12:46:52;;;;;;;15.33;5.80;;;;;;;;;;5010225;28;20428;-70
2022/11/03 12:49:18;;;;;;;17.90;12.00;;;;;;;;;;5010231;28;20844;-69
2022/11/03 12:51:44;;;;;;;8.00;6.70;;;;;;;;;;5009671;28;20491;-69
2022/11/03 12:54:10;;;;;;;8.67;5.40;;;;;;;;;;5005588;28;20443;-69
2022/11/03 12:56:36;;;;;;;7.30;4.90;;;;;;;;;;5009164;28;20432;-70
2022/11/03 12:59:02;;;;;;;9.40;5.83;;;;;;;;;;5007416;28;20510;-69
2022/11/03 13:01:28;;;;;;;10.10;6.07;;;;;;;;;;5009550;28;20452;-69
2022/11/03 13:03:54;;;;;;;10.70;5.97;;;;;;;;;;5007854;28;20435;-69
2022/11/03 13:06:20;;;;;;;8.27;6.00;;;;;;;;;;5007886;28;20524;-69
2022/11/03 13:08:48;;;;;;;9.60;6.00;;;;;;;;;;5008768;28;20515;-70
2022/11/03 13:13:59;;;;;;;10.00;4.70;;;;;;;;;;5007753;28;20831;-70
2022/11/03 13:16:25;;;;;;;8.07;6.53;;;;;;;;;;5010056;28;20424;-70
2022/11/03 13:18:51;;;;;;;10.30;8.27;;;;;;;;;;5007816;28;20855;-70
2022/11/03 13:21:17;;;;;;;10.40;7.87;;;;;;;;;;5007618;28;20490;-69
2022/11/03 13:23:43;;;;;;;6.87;6.07;;;;;;;;;;5004052;28;20440;-70
2022/11/03 13:26:09;;;;;;;8.70;6.30;;;;;;;;;;5009219;28;20852;-69
2022/11/03 13:28:35;;;;;;;12.10;6.97;;;;;;;;;;5006326;28;20436;-69
2022/11/03 13:31:01;;;;;;;7.30;4.50;;;;;;;;;;5007525;28;20490;-69
2022/11/03 13:33:27;;;;;;;4.17;3.93;;;;;;;;;;5008978;28;20527;-69
2022/11/03 13:35:53;;;;;;;8.37;4.97;;;;;;;;;;5007048;28;20535;-68
2022/11/03 13:38:20;;;;;;;4.27;3.87;;;;;;;;;;5008839;28;20600;-69
2022/11/03 13:40:46;;;;;;;4.93;3.80;;;;;;;;;;5005334;28;20448;-69
2022/11/03 13:43:12;;;;;;;5.00;3.93;;;;;;;;;;5006175;28;20427;-69
2022/11/03 13:45:38;;;;;;;6.50;3.53;;;;;;;;;;5006531;28;20523;-68
2022/11/03 13:48:04;;;;;;;8.53;4.77;;;;;;;;;;5007639;28;20428;-71
2022/11/03 13:50:30;;;;;;;6.63;4.00;;;;;;;;;;5007253;28;20468;-69
2022/11/03 13:52:56;;;;;;;10.87;4.60;;;;;;;;;;5009561;28;20436;-69
2022/11/03 13:55:22;;;;;;;5.07;4.87;;;;;;;;;;5005788;28;20431;-69
2022/11/03 13:57:48;;;;;;;7.13;4.73;;;;;;;;;;5008151;28;20436;-68
2022/11/03 14:00:15;;;;;;;7.20;4.63;;;;;;;;;;5005455;28;20452;-69
2022/11/03 14:02:42;;;;;;;4.20;3.87;;;;;;;;;;4990245;28;20429;-69
2022/11/03 14:05:08;;;;;;;12.13;4.70;;;;;;;;;;5009744;28;20424;-69
2022/11/03 14:07:34;;;;;;;4.50;4.10;;;;;;;;;;5004116;28;20766;-70
2022/11/03 14:10:00;;;;;;;3.80;3.50;;;;;;;;;;5006948;28;20444;-69
2022/11/03 14:12:33;;;;;;;3.83;3.53;;;;;;;;;;5007359;28;20444;-69
2022/11/03 14:15:04;;;;;;;4.20;3.80;;;;;;;;;;5008758;28;20441;-69
2022/11/03 14:17:30;;;;;;;15.33;3.90;;;;;;;;;;5008216;28;20482;-70
2022/11/03 14:19:56;;;;;;;5.57;3.87;;;;;;;;;;5005880;28;20926;-70
2022/11/03 14:22:23;;;;;;;7.70;4.90;;;;;;;;;;5007602;28;20436;-70
2022/11/03 14:24:49;;;;;;;9.57;3.87;;;;;;;;;;5007509;28;20519;-70
2022/11/03 14:27:16;;;;;;;11.93;4.30;;;;;;;;;;5005504;28;20447;-70
2022/11/03 14:29:48;;;;;;;7.70;4.43;;;;;;;;;;5009427;28;20454;-69
2022/11/03 14:32:14;;;;;;;5.20;4.60;;;;;;;;;;5008219;28;20484;-70
2022/11/03 14:34:40;;;;;;;10.67;4.10;;;;;;;;;;5009510;28;20518;-69
2022/11/03 14:37:09;;;;;;;5.80;3.67;;;;;;;;;;5011537;28;21390;-70
2022/11/03 14:39:36;;;;;;;6.50;3.53;;;;;;;;;;5013023;28;20748;-70
2022/11/03 14:42:05;;;;;;;11.63;4.57;;;;;;;;;;5011903;28;20482;-69
2022/11/03 14:44:38;;;;;;;7.73;4.40;;;;;;;;;;5009302;28;20424;-70
2022/11/03 14:47:06;;;;;;;3.33;3.13;;;;;;;;;;5010120;28;20523;-70
2022/11/03 14:49:33;;;;;;;4.37;4.07;;;;;;;;;;5012661;28;20843;-70
2022/11/03 14:52:00;;;;;;;5.90;4.87;;;;;;;;;;5010802;28;20476;-69
2022/11/03 14:54:26;;;;;;;16.03;4.53;;;;;;;;;;5010672;28;20436;-69
2022/11/03 14:56:52;;;;;;;7.13;4.90;;;;;;;;;;5009489;28;20443;-70
2022/11/03 14:59:19;;;;;;;2.67;2.47;;;;;;;;;;5011473;28;20439;-69
2022/11/03 15:01:45;;;;;;;5.03;2.47;;;;;;;;;;5011798;28;20451;-69
2022/11/03 15:04:12;;;;;;;3.80;3.00;;;;;;;;;;5007557;28;20448;-70
2022/11/03 15:06:38;;;;;;;6.50;4.03;;;;;;;;;;5011474;28;20917;-69
2022/11/03 15:09:04;;;;;;;4.07;3.60;;;;;;;;;;5009164;28;20468;-70